createdAt,value
2022-10-28T06:05:10.108Z,98761.13
2022-10-28T06:07:38.010Z,98758.31
2022-10-28T06:10:09.636Z,98752.78
2022-10-28T06:12:35.632Z,98749.69
2022-10-28T06:15:03.521Z,98750.78
2022-10-28T06:17:32.981Z,98764.84
2022-10-28T06:20:00.089Z,98754.97
2022-10-28T06:22:27.202Z,98742.88
2022-10-28T06:24:54.372Z,98764.09
2022-10-28T06:27:21.537Z,98756.25
2022-10-28T06:29:50.744Z,98752.56
2022-10-28T06:32:17.836Z,98752.38
2022-10-28T06:34:45.203Z,98766.22
2022-10-28T06:37:13.227Z,98760.78
2022-10-28T06:39:42.519Z,98754.31
2022-10-28T06:42:09.723Z,98757.81
2022-10-28T06:44:36.868Z,98759.59
2022-10-28T06:47:05.604Z,98758.00
2022-10-28T06:49:32.798Z,98763.94
2022-10-28T06:52:00.426Z,98762.34
2022-10-28T06:54:27.666Z,98766.84
2022-10-28T06:56:57.303Z,98769.00
2022-10-28T06:59:24.727Z,98774.81
2022-10-28T07:01:52.231Z,98768.03
2022-10-28T07:04:19.703Z,98764.28
2022-10-28T07:06:49.835Z,63001.84
2022-10-28T07:09:19.339Z,63001.84
2022-10-28T07:11:53.576Z,63001.84
2022-10-28T07:14:22.761Z,63001.84
2022-10-28T07:16:49.940Z,63001.84
2022-10-28T07:19:22.591Z,63001.84
2022-10-28T07:21:50.145Z,63001.84
2022-10-28T07:24:17.541Z,63001.84
2022-10-28T07:26:44.860Z,63001.84
2022-10-28T07:29:12.174Z,63001.84
2022-10-28T07:31:39.374Z,63001.84
2022-10-28T07:34:06.623Z,63001.84
2022-10-28T07:36:34.000Z,63001.84
2022-10-28T07:39:04.370Z,63001.84
2022-10-28T07:41:31.590Z,63001.84
2022-10-28T07:43:59.087Z,63001.84
2022-10-28T07:46:26.415Z,63001.84
2022-10-28T07:48:53.681Z,63001.84
2022-10-28T07:51:20.344Z,63001.84
2022-10-28T07:53:47.678Z,63001.84
2022-10-28T07:56:18.242Z,63001.84
2022-10-28T07:58:46.206Z,63001.84
2022-10-28T08:01:16.961Z,63001.84
2022-10-28T08:03:45.051Z,63001.84
2022-10-28T08:06:17.791Z,63001.84
2022-10-28T08:08:46.659Z,63001.84
2022-10-28T08:11:16.856Z,63001.84
2022-10-28T08:13:43.948Z,63001.84
2022-10-28T08:16:11.664Z,63001.84
2022-10-28T08:18:39.977Z,63001.84
2022-10-28T08:21:09.884Z,63001.84
2022-10-28T08:23:38.809Z,63001.84
2022-10-28T08:26:06.793Z,63001.84
2022-10-28T08:28:35.553Z,63001.84
2022-10-28T08:31:08.620Z,63001.84
2022-10-28T08:33:48.596Z,63001.84
2022-10-28T08:36:17.235Z,63001.84
2022-10-28T08:38:47.729Z,63001.84
2022-10-28T08:41:33.090Z,63001.84
2022-10-28T08:44:24.767Z,63001.84
2022-10-28T08:47:07.208Z,63001.84
2022-10-28T08:49:38.583Z,63001.84
2022-10-28T08:52:20.860Z,63001.84
2022-10-28T08:55:14.481Z,63001.84
2022-10-28T08:57:47.272Z,63001.84
2022-10-28T09:00:35.217Z,63001.84
2022-10-28T09:03:22.775Z,63001.84
2022-10-28T09:05:56.806Z,63001.84
2022-10-28T09:08:29.298Z,63001.84
2022-10-28T09:11:14.835Z,63001.84
2022-10-28T09:14:10.983Z,63001.84
2022-10-28T09:16:49.902Z,63001.84
2022-10-28T09:19:52.656Z,63001.84
2022-10-28T09:23:08.641Z,63001.84
2022-10-28T09:26:03.561Z,63001.84
2022-10-28T09:28:42.290Z,63001.84
2022-10-28T09:31:12.865Z,63001.84
2022-10-28T09:33:51.344Z,63001.84
2022-10-28T09:36:25.223Z,63001.84
2022-10-28T09:38:55.104Z,63001.84
2022-10-28T09:41:32.691Z,63001.84
2022-10-28T09:44:41.160Z,63001.84
2022-10-28T09:47:18.573Z,63001.84
2022-10-28T09:49:47.310Z,63001.84
2022-10-28T09:52:20.558Z,63001.84
2022-10-28T09:54:52.813Z,63001.84
2022-10-28T09:57:21.107Z,63001.84
2022-10-28T09:59:56.373Z,63001.84
2022-10-28T10:02:30.870Z,63001.84
2022-10-28T10:04:59.792Z,63001.84
2022-10-28T10:07:35.679Z,63001.84
2022-10-28T10:10:11.453Z,63001.84
2022-10-28T10:12:38.361Z,63001.84
2022-10-28T10:15:10.103Z,63001.84
2022-10-28T10:17:47.977Z,63001.84
2022-10-28T10:20:18.143Z,63001.84
2022-10-28T10:22:48.291Z,63001.84
2022-10-28T10:25:17.900Z,63001.84
2022-10-28T10:28:04.749Z,63001.84
2022-10-28T10:30:49.310Z,63001.84
2022-10-28T10:33:22.804Z,63001.84
2022-10-28T10:36:00.017Z,63001.84
2022-10-28T10:38:29.055Z,63001.84
2022-10-28T10:40:56.358Z,63001.84
2022-10-28T10:43:39.981Z,63001.84
2022-10-28T10:46:18.122Z,63001.84
2022-10-28T10:48:45.157Z,63001.84
2022-10-28T10:51:23.116Z,63001.84
2022-10-28T10:53:53.312Z,63001.84
2022-10-28T10:56:26.483Z,63001.84
2022-10-28T10:58:55.276Z,63001.84
2022-10-28T11:01:26.720Z,63001.84
2022-10-28T11:04:02.352Z,63001.84
2022-10-28T11:06:41.250Z,63001.84
2022-10-28T11:09:32.805Z,63001.84
2022-10-28T11:11:59.476Z,63001.84
2022-10-28T11:14:32.417Z,63001.84
2022-10-28T11:17:01.188Z,63001.84
2022-10-28T11:19:34.067Z,63001.84
2022-10-28T11:22:38.565Z,63001.84
2022-10-28T11:25:37.420Z,63001.84
2022-10-28T11:28:13.415Z,63001.84
2022-10-28T11:30:46.638Z,63001.84
2022-10-28T11:33:30.785Z,63001.84
2022-10-28T11:36:06.815Z,63001.84
2022-10-28T11:39:11.837Z,63001.84
2022-10-28T11:42:00.297Z,63001.84
2022-10-28T11:44:37.288Z,63001.84
2022-10-28T11:47:25.237Z,63001.84
2022-10-28T11:50:02.781Z,63001.84
2022-10-28T11:52:48.003Z,63001.84
2022-10-28T11:55:31.514Z,63001.84
2022-10-28T11:58:17.525Z,63001.84
2022-10-28T12:00:58.049Z,63001.84
2022-10-28T12:03:43.286Z,63001.84
2022-10-28T12:06:22.918Z,63001.84
2022-10-28T12:09:17.997Z,63001.84
2022-10-28T12:11:47.579Z,63001.84
2022-10-28T12:14:22.883Z,63001.84
2022-10-28T12:16:58.412Z,63001.84
2022-10-28T12:19:33.393Z,63001.84
2022-10-28T12:22:09.750Z,63001.84
2022-10-28T12:24:39.626Z,63001.84
2022-10-28T12:27:20.880Z,63001.84
2022-10-28T12:29:53.221Z,63001.84
2022-10-28T12:32:33.700Z,63001.84
2022-10-28T12:35:28.599Z,63001.84
2022-10-28T12:38:04.061Z,63001.84
2022-10-28T12:41:02.818Z,63001.84
2022-10-28T12:43:56.201Z,63001.84
2022-10-28T12:46:28.958Z,63001.84
2022-10-28T12:49:03.774Z,63001.84
2022-10-28T12:51:44.516Z,63001.84
2022-10-28T12:54:36.919Z,63001.84
2022-10-28T12:57:18.597Z,63001.84
2022-10-28T12:59:54.452Z,63001.84
2022-10-28T13:02:28.783Z,63001.84
2022-10-28T13:04:55.545Z,63001.84
2022-10-28T13:07:53.578Z,63001.84
2022-10-28T13:10:32.696Z,63001.84
2022-10-28T13:13:32.946Z,63001.84
2022-10-28T13:16:18.090Z,63001.84
2022-10-28T13:19:14.413Z,63001.84
2022-10-28T13:21:56.237Z,63001.84
2022-10-28T13:24:22.694Z,63001.84
2022-10-28T13:26:49.984Z,63001.84
2022-10-28T13:29:22.772Z,63001.84
2022-10-28T13:31:50.351Z,63001.84
2022-10-28T13:34:21.298Z,63001.84
2022-10-28T13:36:57.641Z,63001.84
2022-10-28T13:39:32.534Z,63001.84
2022-10-28T13:42:14.891Z,63001.84
2022-10-28T13:44:57.524Z,63001.84
2022-10-28T13:47:29.849Z,63001.84
2022-10-28T13:50:08.771Z,63001.84
2022-10-28T13:52:43.004Z,63001.84
2022-10-28T13:55:26.150Z,63001.84
2022-10-28T13:58:24.152Z,63001.84
2022-10-28T14:00:53.457Z,63001.84
2022-10-28T14:03:26.664Z,63001.84
2022-10-28T14:05:57.501Z,63001.84
2022-10-28T14:08:53.608Z,63001.84
2022-10-28T14:11:24.786Z,63001.84
2022-10-28T14:13:59.545Z,63001.84
2022-10-28T14:16:34.704Z,63001.84
2022-10-28T14:19:20.044Z,63001.84
2022-10-28T14:22:03.390Z,63001.84
2022-10-28T14:24:38.945Z,63001.84
2022-10-28T14:27:05.420Z,63001.84
2022-10-28T14:29:49.211Z,63001.84
2022-10-28T14:32:30.893Z,63001.84
2022-10-28T14:35:16.232Z,63001.84
2022-10-28T14:38:06.525Z,63001.84
2022-10-28T14:40:44.793Z,63001.84
2022-10-28T14:43:32.000Z,63001.84
2022-10-28T14:46:26.022Z,63001.84
2022-10-28T14:48:54.574Z,63001.84
2022-10-28T14:51:24.936Z,63001.84
2022-10-28T14:53:58.589Z,63001.84
2022-10-28T14:56:27.590Z,63001.84
2022-10-28T14:58:58.486Z,63001.84
2022-10-28T15:01:36.497Z,63001.84
2022-10-28T15:04:09.757Z,63001.84
2022-10-28T15:06:40.679Z,63001.84
2022-10-28T15:09:16.524Z,63001.84
2022-10-28T15:11:50.590Z,63001.84
2022-10-28T15:14:35.131Z,63001.84
2022-10-28T15:17:23.216Z,63001.84
2022-10-28T15:19:55.984Z,63001.84
2022-10-28T15:22:34.272Z,63001.84
2022-10-28T15:25:02.013Z,63001.84
2022-10-28T15:27:37.558Z,63001.84
2022-10-28T15:30:13.389Z,63001.84
2022-10-28T15:32:39.999Z,63001.84
2022-10-28T15:35:32.878Z,63001.84
2022-10-28T15:38:04.746Z,63001.84
2022-10-28T15:40:33.125Z,63001.84
2022-10-28T15:43:02.752Z,63001.84
2022-10-28T15:45:32.334Z,63001.84
2022-10-28T15:48:01.930Z,63001.84
2022-10-28T15:50:32.737Z,63001.84
2022-10-28T15:53:11.512Z,63001.84
2022-10-28T15:56:06.860Z,63001.84
2022-10-28T15:58:39.540Z,63001.84
2022-10-28T16:01:10.143Z,63001.84
2022-10-28T16:03:41.969Z,63001.84
2022-10-28T16:06:32.417Z,63001.84
2022-10-28T16:09:16.219Z,63001.84
2022-10-28T16:11:48.081Z,63001.84
2022-10-28T16:14:33.461Z,63001.84
2022-10-28T16:17:27.232Z,63001.84
2022-10-28T16:20:04.759Z,63001.84
2022-10-28T16:22:35.236Z,63001.84
2022-10-28T16:25:23.357Z,63001.84
2022-10-28T16:28:04.120Z,63001.84
2022-10-28T16:30:31.560Z,63001.84
2022-10-28T16:33:05.483Z,63001.84
2022-10-28T16:35:32.175Z,63001.84
2022-10-28T16:37:59.517Z,63001.84
2022-10-28T16:43:26.724Z,63001.84
2022-10-28T16:45:58.016Z,63001.84
2022-10-28T16:48:30.041Z,63001.84
2022-10-28T16:51:06.804Z,63001.84
2022-10-28T16:53:34.235Z,63001.84
2022-10-28T16:56:02.488Z,63001.84
2022-10-28T16:58:33.766Z,63001.84
2022-10-28T17:01:00.820Z,63001.84
2022-10-28T17:03:27.633Z,63001.84
2022-10-28T17:05:54.573Z,63001.84
2022-10-28T17:09:01.116Z,63001.84
2022-10-28T17:11:22.650Z,63001.84
2022-10-28T17:14:19.425Z,63001.84
2022-10-28T17:16:49.449Z,63001.84
2022-10-28T17:19:16.398Z,63001.84
2022-10-28T17:21:43.786Z,63001.84
2022-10-28T17:24:12.598Z,63001.84
2022-10-28T17:26:45.257Z,63001.84
2022-10-28T17:29:12.304Z,63001.84
2022-10-28T17:31:39.066Z,63001.84
2022-10-28T17:34:05.889Z,63001.84
2022-10-28T17:36:36.970Z,63001.84
2022-10-28T17:39:03.834Z,63001.84
2022-10-28T17:41:30.637Z,63001.84
2022-10-28T17:43:57.548Z,63001.84
2022-10-28T17:46:30.127Z,63001.84
2022-10-28T17:48:56.901Z,63001.84
2022-10-28T17:51:31.592Z,63001.84
2022-10-28T17:54:00.711Z,63001.84
2022-10-28T17:56:29.340Z,63001.84
2022-10-28T17:59:02.641Z,63001.84
2022-10-28T18:01:34.272Z,63001.84
2022-10-28T18:04:03.944Z,63001.84
2022-10-28T18:06:30.850Z,63001.84
2022-10-28T18:15:44.347Z,63001.84
2022-10-28T18:22:42.971Z,63001.84
2022-10-28T18:25:15.448Z,63001.84
2022-10-28T18:27:45.485Z,63001.84
2022-10-28T18:30:22.504Z,63001.84
2022-10-28T18:33:26.209Z,63001.84
2022-10-28T18:43:10.086Z,63001.84
2022-10-28T18:46:00.799Z,63001.84
2022-10-28T18:48:34.937Z,63001.84
2022-10-28T18:51:19.433Z,63001.84
2022-10-28T18:53:50.790Z,63001.84
2022-10-28T18:56:37.219Z,63001.84
2022-10-28T18:59:04.900Z,63001.84
2022-10-28T19:01:38.520Z,63001.84
2022-10-28T19:04:06.087Z,63001.84
2022-10-28T19:06:45.141Z,63001.84
2022-10-28T19:09:20.075Z,63001.84
2022-10-28T19:11:49.141Z,63001.84
2022-10-28T19:14:34.306Z,63001.84
2022-10-28T19:17:03.740Z,63001.84
2022-10-28T19:19:35.546Z,63001.84
2022-10-28T19:22:21.266Z,63001.84
2022-10-28T19:24:49.383Z,63001.84
2022-10-28T19:27:23.115Z,63001.84
2022-10-28T19:29:49.994Z,63001.84
2022-10-28T19:32:16.870Z,63001.84
2022-10-28T19:34:50.054Z,63001.84
2022-10-28T19:37:16.840Z,63001.84
2022-10-28T19:39:44.102Z,63001.84
2022-10-28T19:42:10.977Z,63001.84
2022-10-28T19:44:37.834Z,63001.84
2022-10-28T19:47:04.543Z,63001.84
2022-10-28T19:49:37.117Z,63001.84
2022-10-28T19:52:08.371Z,63001.84
2022-10-28T19:54:35.136Z,63001.84
2022-10-28T19:57:01.896Z,63001.84
2022-10-28T19:59:28.690Z,63001.84
2022-10-28T20:01:55.527Z,63001.84
2022-10-28T20:04:24.627Z,63001.84
2022-10-28T20:06:54.321Z,63001.84
2022-10-28T20:09:25.039Z,63001.84
2022-10-28T20:11:54.644Z,63001.84
2022-10-28T20:14:21.585Z,63001.84
2022-10-28T20:16:49.716Z,63001.84
2022-10-28T20:19:24.035Z,63001.84
2022-10-28T20:21:55.997Z,63001.84
2022-10-28T20:24:23.151Z,63001.84
2022-10-28T20:26:50.285Z,63001.84
2022-10-28T20:29:17.013Z,63001.84
2022-10-28T20:31:43.833Z,63001.84
2022-10-28T20:34:10.743Z,63001.84
2022-10-28T20:36:46.155Z,63001.84
2022-10-28T20:39:16.537Z,63001.84
2022-10-28T20:41:45.672Z,63001.84
2022-10-28T20:44:14.972Z,63001.84
2022-10-28T20:46:46.738Z,63001.84
2022-10-28T20:49:14.266Z,63001.84
2022-10-28T20:51:41.715Z,63001.84
2022-10-28T20:54:08.899Z,63001.84
2022-10-28T20:56:54.535Z,63001.84
2022-10-28T20:59:21.287Z,63001.84
2022-10-28T21:01:51.216Z,63001.84
2022-10-28T21:04:22.652Z,63001.84
2022-10-28T21:06:51.468Z,63001.84
2022-10-28T21:09:18.433Z,63001.84
2022-10-28T21:11:45.868Z,63001.84
2022-10-28T21:14:12.770Z,63001.84
2022-10-28T21:16:39.666Z,63001.84
2022-10-28T21:19:06.567Z,63001.84
2022-10-28T21:21:33.304Z,63001.84
2022-10-28T21:24:00.108Z,63001.84
2022-10-28T21:26:27.409Z,63001.84
2022-10-28T21:28:54.536Z,63001.84
2022-10-28T21:31:22.416Z,63001.84
2022-10-28T21:36:19.715Z,63001.84
2022-10-28T21:38:47.781Z,63001.84
2022-10-28T21:41:17.363Z,63001.84
2022-10-28T21:43:48.366Z,63001.84
2022-10-28T21:46:16.359Z,63001.84
2022-10-28T21:48:43.239Z,63001.84
2022-10-28T21:51:15.146Z,63001.84
2022-10-28T21:53:43.812Z,63001.84
2022-10-28T21:56:19.608Z,63001.84
2022-10-28T21:58:50.896Z,63001.84
2022-10-28T22:01:23.474Z,63001.84
2022-10-28T22:03:54.814Z,63001.84
2022-10-28T22:06:22.019Z,63001.84
2022-10-28T22:08:49.739Z,63001.84
2022-10-28T22:11:24.749Z,63001.84
2022-10-28T22:14:03.868Z,63001.84
2022-10-28T22:16:33.801Z,63001.84
2022-10-28T22:19:03.371Z,63001.84
2022-10-28T22:21:33.620Z,63001.84
2022-10-28T22:24:00.791Z,63001.84
2022-10-28T22:26:30.065Z,63001.84
2022-10-28T22:28:58.284Z,63001.84
2022-10-28T22:31:33.038Z,63001.84
2022-10-28T22:34:00.944Z,63001.84
2022-10-28T22:36:30.031Z,63001.84
2022-10-28T22:38:57.253Z,63001.84
2022-10-28T22:41:23.938Z,63001.84
2022-10-28T22:43:53.102Z,63001.84
2022-10-28T22:46:20.773Z,63001.84
2022-10-28T22:48:47.883Z,63001.84
2022-10-28T22:51:15.413Z,63001.84
2022-10-28T22:53:42.533Z,63001.84
2022-10-28T22:56:15.583Z,63001.84
2022-10-28T22:58:42.689Z,63001.84
2022-10-28T23:01:10.895Z,63001.84
2022-10-28T23:03:39.825Z,63001.84
2022-10-28T23:06:07.554Z,63001.84
2022-10-28T23:08:37.165Z,63001.84
2022-10-28T23:11:04.486Z,63001.84
2022-10-28T23:13:31.576Z,63001.84
2022-10-28T23:16:04.071Z,63001.84
2022-10-28T23:18:31.214Z,63001.84
2022-10-28T23:21:03.092Z,63001.84
2022-10-28T23:23:29.771Z,63001.84
2022-10-28T23:25:57.598Z,63001.84
2022-10-28T23:28:24.663Z,63001.84
2022-10-28T23:30:51.283Z,63001.84
2022-10-28T23:33:17.965Z,63001.84
2022-10-28T23:35:44.941Z,63001.84
2022-10-28T23:38:16.597Z,63001.84
2022-10-28T23:40:43.393Z,63001.84
2022-10-28T23:43:13.299Z,63001.84
2022-10-28T23:45:39.978Z,63001.84
2022-10-28T23:48:06.909Z,63001.84
2022-10-28T23:50:34.121Z,63001.84
2022-10-28T23:53:00.984Z,63001.84
2022-10-28T23:55:27.658Z,63001.84
2022-10-28T23:57:57.448Z,63001.84
